CSZ206 RPLL-ZGSZ
Flight info
| Callsign | CSZ206 |
|---|---|
| Flight time | 1h 56m |
| Altitude | 34000 |
| Route | OLIVA W16 AVMUP A461 BEKOL |
| Aircraft | B38M/M-SDE1FGHILORVWXY/HB1 |
Departure
| Time | 2026-04-23 13:45 |
|---|---|
| Airport | Ninoy Aquino International Airport (RPLL) |
Arrival
| Time | 2026-04-23 15:42 |
|---|---|
| Airport | Shenzhen Bao'an International Airport (ZGSZ) |
| Time | Latitude | Longitude | Altitude | Speed | Heading |
|---|---|---|---|---|---|
| 2026-04-23 13:25 | 14.50531 | 121.00428 | 84 ft | 0 kts | 109° |
| 2026-04-23 13:35 | 14.50534 | 121.00418 | 84 ft | 2 kts | 109° |
| 2026-04-23 13:35 | 14.50539 | 121.00404 | 84 ft | 2 kts | 109° |
| 2026-04-23 13:35 | 14.50544 | 121.00389 | 84 ft | 2 kts | 115° |
| 2026-04-23 13:35 | 14.50550 | 121.00379 | 84 ft | 1 kts | 128° |
| 2026-04-23 13:36 | 14.50552 | 121.00372 | 84 ft | 1 kts | 81° |
| 2026-04-23 13:36 | 14.50552 | 121.00367 | 84 ft | 1 kts | 131° |
| 2026-04-23 13:36 | 14.50557 | 121.00364 | 84 ft | 1 kts | 187° |
| 2026-04-23 13:36 | 14.50563 | 121.00366 | 84 ft | 0 kts | 233° |
| 2026-04-23 13:37 | 14.50566 | 121.00372 | 84 ft | 1 kts | 237° |
| 2026-04-23 13:37 | 14.50567 | 121.00373 | 84 ft | 0 kts | 237° |
| 2026-04-23 13:38 | 14.50565 | 121.00370 | 84 ft | 3 kts | 237° |
| 2026-04-23 13:38 | 14.50506 | 121.00301 | 84 ft | 16 kts | 211° |
| 2026-04-23 13:39 | 14.50433 | 121.00290 | 84 ft | 10 kts | 184° |
| 2026-04-23 13:39 | 14.50359 | 121.00285 | 84 ft | 11 kts | 183° |
| 2026-04-23 13:39 | 14.50278 | 121.00281 | 84 ft | 12 kts | 179° |
| 2026-04-23 13:39 | 14.50196 | 121.00309 | 84 ft | 13 kts | 150° |
| 2026-04-23 13:40 | 14.50120 | 121.00319 | 84 ft | 10 kts | 225° |
| 2026-04-23 13:40 | 14.50079 | 121.00256 | 84 ft | 11 kts | 238° |
| 2026-04-23 13:40 | 14.50036 | 121.00183 | 84 ft | 12 kts | 239° |
| 2026-04-23 13:40 | 14.49993 | 121.00102 | 84 ft | 13 kts | 241° |
| 2026-04-23 13:41 | 14.49946 | 121.00015 | 84 ft | 14 kts | 240° |
| 2026-04-23 13:41 | 14.49913 | 120.99973 | 84 ft | 0 kts | 211° |
| 2026-04-23 13:42 | 14.49912 | 120.99972 | 84 ft | 1 kts | 210° |
| 2026-04-23 13:42 | 14.49889 | 120.99966 | 84 ft | 5 kts | 179° |
| 2026-04-23 13:42 | 14.49851 | 120.99981 | 84 ft | 8 kts | 154° |
| 2026-04-23 13:42 | 14.49816 | 121.00025 | 84 ft | 9 kts | 102° |
| 2026-04-23 13:43 | 14.49829 | 121.00090 | 84 ft | 10 kts | 62° |
| 2026-04-23 13:43 | 14.49865 | 121.00157 | 84 ft | 11 kts | 61° |
| 2026-04-23 13:43 | 14.49894 | 121.00208 | 84 ft | 0 kts | 59° |
| 2026-04-23 13:44 | 14.49899 | 121.00215 | 84 ft | 4 kts | 59° |
| 2026-04-23 13:44 | 14.49990 | 121.00371 | 84 ft | 61 kts | 60° |
| 2026-04-23 13:44 | 14.50330 | 121.00983 | 85 ft | 133 kts | 60° |
| 2026-04-23 13:44 | 14.50894 | 121.01993 | 113 ft | 187 kts | 60° |
| 2026-04-23 13:45 | 14.51341 | 121.02762 | 543 ft | 190 kts | 60° |
| 2026-04-23 13:45 | 14.52229 | 121.04258 | 1633 ft | 184 kts | 60° |
| 2026-04-23 13:45 | 14.52884 | 121.05358 | 2106 ft | 185 kts | 60° |
| 2026-04-23 13:45 | 14.53566 | 121.06507 | 2349 ft | 197 kts | 60° |
| 2026-04-23 13:46 | 14.54291 | 121.07736 | 2832 ft | 194 kts | 60° |
| 2026-04-23 13:46 | 14.54966 | 121.08868 | 3483 ft | 180 kts | 59° |
| 2026-04-23 13:46 | 14.55424 | 121.10015 | 3928 ft | 173 kts | 90° |
| 2026-04-23 13:46 | 14.55096 | 121.11152 | 4252 ft | 167 kts | 134° |
| 2026-04-23 13:47 | 14.54139 | 121.11710 | 4555 ft | 162 kts | 175° |
| 2026-04-23 13:47 | 14.53009 | 121.11795 | 4895 ft | 165 kts | 178° |
| 2026-04-23 13:47 | 14.51864 | 121.11865 | 5306 ft | 165 kts | 177° |
| 2026-04-23 13:47 | 14.50728 | 121.11920 | 5723 ft | 165 kts | 179° |
| 2026-04-23 13:48 | 14.49578 | 121.11989 | 6114 ft | 166 kts | 178° |
| 2026-04-23 13:48 | 14.48426 | 121.12064 | 6447 ft | 171 kts | 178° |
| 2026-04-23 13:48 | 14.47210 | 121.12155 | 6693 ft | 182 kts | 178° |
| 2026-04-23 13:48 | 14.45918 | 121.12261 | 6937 ft | 194 kts | 178° |
| 2026-04-23 13:49 | 14.44534 | 121.12379 | 7161 ft | 207 kts | 178° |
| 2026-04-23 13:49 | 14.43058 | 121.12493 | 7428 ft | 219 kts | 178° |
| 2026-04-23 13:49 | 14.41512 | 121.12418 | 7644 ft | 231 kts | 200° |
| 2026-04-23 13:49 | 14.40250 | 121.11394 | 7887 ft | 242 kts | 242° |
| 2026-04-23 13:50 | 14.39857 | 121.09694 | 8200 ft | 256 kts | 274° |
| 2026-04-23 13:50 | 14.40076 | 121.07829 | 8555 ft | 272 kts | 276° |
| 2026-04-23 13:50 | 14.40303 | 121.05880 | 9028 ft | 282 kts | 275° |
| 2026-04-23 13:50 | 14.40505 | 121.03859 | 9734 ft | 284 kts | 275° |
| 2026-04-23 13:51 | 14.40694 | 121.01824 | 10410 ft | 287 kts | 275° |
| 2026-04-23 13:51 | 14.40878 | 120.99738 | 10746 ft | 302 kts | 275° |
| 2026-04-23 13:51 | 14.41065 | 120.97533 | 11038 ft | 318 kts | 275° |
| 2026-04-23 13:51 | 14.41255 | 120.95215 | 11324 ft | 334 kts | 275° |
| 2026-04-23 13:52 | 14.41452 | 120.92785 | 11603 ft | 349 kts | 275° |
| 2026-04-23 13:52 | 14.41659 | 120.90223 | 11879 ft | 365 kts | 275° |
| 2026-04-23 13:52 | 14.41874 | 120.87547 | 12148 ft | 380 kts | 275° |
| 2026-04-23 13:52 | 14.42100 | 120.84742 | 12412 ft | 395 kts | 275° |
| 2026-04-23 13:53 | 14.42331 | 120.81845 | 12768 ft | 406 kts | 275° |
| 2026-04-23 13:53 | 14.42563 | 120.78911 | 13393 ft | 410 kts | 275° |
| 2026-04-23 13:53 | 14.42794 | 120.75959 | 14040 ft | 413 kts | 275° |
| 2026-04-23 13:53 | 14.43027 | 120.72977 | 14609 ft | 417 kts | 275° |
| 2026-04-23 13:54 | 14.43261 | 120.69980 | 14886 ft | 420 kts | 276° |
| 2026-04-23 13:54 | 14.43494 | 120.66982 | 14902 ft | 419 kts | 276° |
| 2026-04-23 13:54 | 14.43728 | 120.63969 | 14917 ft | 420 kts | 275° |
| 2026-04-23 13:54 | 14.43961 | 120.60949 | 15230 ft | 427 kts | 275° |
| 2026-04-23 13:55 | 14.44195 | 120.57886 | 15946 ft | 427 kts | 276° |
| 2026-04-23 13:55 | 14.44428 | 120.54848 | 16558 ft | 429 kts | 276° |
| 2026-04-23 13:55 | 14.44664 | 120.51758 | 17080 ft | 433 kts | 276° |
| 2026-04-23 13:55 | 14.44901 | 120.48645 | 17602 ft | 437 kts | 276° |
| 2026-04-23 13:56 | 14.45139 | 120.45507 | 18118 ft | 440 kts | 276° |
| 2026-04-23 13:56 | 14.45381 | 120.42322 | 18617 ft | 444 kts | 276° |
| 2026-04-23 13:56 | 14.45625 | 120.39138 | 19089 ft | 448 kts | 276° |
| 2026-04-23 13:56 | 14.45836 | 120.35924 | 19550 ft | 451 kts | 274° |
| 2026-04-23 13:57 | 14.45910 | 120.32679 | 19892 ft | 455 kts | 271° |
| 2026-04-23 13:57 | 14.45815 | 120.29396 | 19926 ft | 455 kts | 268° |
| 2026-04-23 13:57 | 14.45602 | 120.26133 | 19968 ft | 458 kts | 267° |
| 2026-04-23 13:57 | 14.45365 | 120.22855 | 20346 ft | 462 kts | 266° |
| 2026-04-23 13:58 | 14.45122 | 120.19541 | 20884 ft | 463 kts | 267° |
| 2026-04-23 13:58 | 14.44881 | 120.16241 | 21318 ft | 465 kts | 267° |
| 2026-04-23 13:58 | 14.44640 | 120.12916 | 21710 ft | 469 kts | 267° |
| 2026-04-23 13:58 | 14.44399 | 120.09569 | 22100 ft | 472 kts | 267° |
| 2026-04-23 13:59 | 14.44155 | 120.06201 | 22486 ft | 475 kts | 267° |
| 2026-04-23 13:59 | 14.43990 | 120.03927 | 22740 ft | 476 kts | 267° |
| 2026-04-23 13:59 | 14.43661 | 119.99401 | 23229 ft | 480 kts | 267° |
| 2026-04-23 13:59 | 14.43412 | 119.95952 | 23622 ft | 482 kts | 267° |
| 2026-04-23 14:00 | 14.43248 | 119.93673 | 23956 ft | 481 kts | 267° |
| 2026-04-23 14:00 | 14.42921 | 119.89107 | 24666 ft | 479 kts | 266° |
| 2026-04-23 14:00 | 14.42674 | 119.85698 | 25148 ft | 478 kts | 266° |
| 2026-04-23 14:00 | 14.42426 | 119.82296 | 25600 ft | 478 kts | 266° |
| 2026-04-23 14:01 | 14.42179 | 119.78900 | 26047 ft | 477 kts | 266° |
| 2026-04-23 14:01 | 14.41935 | 119.75508 | 26490 ft | 476 kts | 266° |
| 2026-04-23 14:01 | 14.41690 | 119.72099 | 26927 ft | 475 kts | 266° |
| 2026-04-23 14:01 | 14.41443 | 119.68716 | 27341 ft | 475 kts | 266° |
| 2026-04-23 14:02 | 14.41194 | 119.65340 | 27743 ft | 474 kts | 266° |
| 2026-04-23 14:02 | 14.40944 | 119.61967 | 28140 ft | 474 kts | 266° |
| 2026-04-23 14:02 | 14.40695 | 119.58601 | 28533 ft | 473 kts | 266° |
| 2026-04-23 14:02 | 14.40598 | 119.55236 | 28892 ft | 471 kts | 275° |
| 2026-04-23 14:03 | 14.41174 | 119.51936 | 29220 ft | 470 kts | 288° |
| 2026-04-23 14:03 | 14.42448 | 119.48845 | 29563 ft | 467 kts | 301° |
| 2026-04-23 14:03 | 14.44326 | 119.46141 | 29893 ft | 465 kts | 313° |
| 2026-04-23 14:03 | 14.46505 | 119.43700 | 30244 ft | 464 kts | 314° |
| 2026-04-23 14:04 | 14.48736 | 119.41285 | 30569 ft | 463 kts | 315° |
| 2026-04-23 14:04 | 14.50953 | 119.38890 | 30880 ft | 463 kts | 315° |
| 2026-04-23 14:04 | 14.53144 | 119.36513 | 31185 ft | 463 kts | 314° |
| 2026-04-23 14:04 | 14.55375 | 119.34077 | 31426 ft | 464 kts | 314° |
| 2026-04-23 14:05 | 14.57601 | 119.31624 | 31521 ft | 469 kts | 314° |
| 2026-04-23 14:05 | 14.59822 | 119.29168 | 31631 ft | 472 kts | 314° |
| 2026-04-23 14:05 | 14.62058 | 119.26695 | 31821 ft | 474 kts | 314° |
| 2026-04-23 14:05 | 14.64298 | 119.24220 | 32085 ft | 474 kts | 314° |
| 2026-04-23 14:06 | 14.66533 | 119.21750 | 32369 ft | 473 kts | 314° |
| 2026-04-23 14:06 | 14.68764 | 119.19286 | 32642 ft | 472 kts | 314° |
| 2026-04-23 14:06 | 14.70991 | 119.16825 | 32902 ft | 471 kts | 314° |
| 2026-04-23 14:06 | 14.73233 | 119.14348 | 33151 ft | 471 kts | 314° |
| 2026-04-23 14:07 | 14.75457 | 119.11890 | 33394 ft | 471 kts | 314° |
| 2026-04-23 14:07 | 14.79897 | 119.06980 | 33868 ft | 470 kts | 314° |
| 2026-04-23 14:07 | 14.82117 | 119.04525 | 33923 ft | 470 kts | 314° |
| 2026-04-23 14:08 | 14.86545 | 118.99622 | 33938 ft | 468 kts | 314° |
| 2026-04-23 14:08 | 14.90971 | 118.94719 | 33939 ft | 466 kts | 314° |
| 2026-04-23 14:09 | 14.95361 | 118.89853 | 33939 ft | 464 kts | 314° |
| 2026-04-23 14:09 | 14.99743 | 118.84998 | 33939 ft | 464 kts | 314° |
| 2026-04-23 14:10 | 15.04141 | 118.80124 | 33938 ft | 464 kts | 314° |
| 2026-04-23 14:10 | 15.08524 | 118.75260 | 33939 ft | 465 kts | 314° |
| 2026-04-23 14:11 | 15.12911 | 118.70399 | 33939 ft | 465 kts | 314° |
| 2026-04-23 14:11 | 15.17307 | 118.65543 | 33939 ft | 465 kts | 314° |
| 2026-04-23 14:12 | 15.21708 | 118.60661 | 33939 ft | 465 kts | 314° |
| 2026-04-23 14:12 | 15.26087 | 118.55790 | 33939 ft | 464 kts | 314° |
| 2026-04-23 14:13 | 15.30465 | 118.50916 | 33939 ft | 465 kts | 314° |
| 2026-04-23 14:13 | 15.34857 | 118.46021 | 33939 ft | 465 kts | 314° |
| 2026-04-23 14:14 | 15.39230 | 118.41144 | 33939 ft | 465 kts | 314° |
| 2026-04-23 14:14 | 15.43605 | 118.36262 | 33939 ft | 465 kts | 314° |
| 2026-04-23 14:15 | 15.47971 | 118.31369 | 33939 ft | 465 kts | 313° |
| 2026-04-23 14:15 | 15.52347 | 118.26450 | 33939 ft | 465 kts | 314° |
| 2026-04-23 14:16 | 15.56713 | 118.21558 | 33939 ft | 465 kts | 314° |
| 2026-04-23 14:16 | 15.61081 | 118.16666 | 33939 ft | 465 kts | 314° |
| 2026-04-23 14:17 | 15.65466 | 118.11755 | 33939 ft | 465 kts | 314° |
| 2026-04-23 14:17 | 15.69832 | 118.06862 | 33939 ft | 465 kts | 314° |
| 2026-04-23 14:18 | 15.74199 | 118.01965 | 33939 ft | 465 kts | 314° |
| 2026-04-23 14:18 | 15.78564 | 117.97068 | 33939 ft | 465 kts | 314° |
| 2026-04-23 14:19 | 15.82945 | 117.92149 | 33939 ft | 465 kts | 314° |
| 2026-04-23 14:19 | 15.87307 | 117.87247 | 33939 ft | 465 kts | 314° |
| 2026-04-23 14:20 | 15.91673 | 117.82337 | 33949 ft | 465 kts | 314° |
| 2026-04-23 14:20 | 15.96058 | 117.77404 | 33959 ft | 465 kts | 314° |
| 2026-04-23 14:21 | 16.00415 | 117.72497 | 33964 ft | 465 kts | 314° |
| 2026-04-23 14:21 | 16.04773 | 117.67586 | 33965 ft | 465 kts | 314° |
| 2026-04-23 14:22 | 16.09129 | 117.62673 | 33965 ft | 464 kts | 314° |
| 2026-04-23 14:22 | 16.13510 | 117.57751 | 33965 ft | 464 kts | 314° |
| 2026-04-23 14:23 | 16.17874 | 117.52848 | 33965 ft | 464 kts | 314° |
| 2026-04-23 14:23 | 16.22228 | 117.47933 | 33965 ft | 464 kts | 314° |
| 2026-04-23 14:24 | 16.26594 | 117.42991 | 33965 ft | 465 kts | 314° |
| 2026-04-23 14:24 | 16.30940 | 117.38063 | 33965 ft | 464 kts | 314° |
| 2026-04-23 14:25 | 16.35281 | 117.33126 | 33965 ft | 465 kts | 313° |
| 2026-04-23 14:25 | 16.39634 | 117.28171 | 33965 ft | 464 kts | 314° |
| 2026-04-23 14:26 | 16.44316 | 117.23529 | 33965 ft | 464 kts | 321° |
| 2026-04-23 14:26 | 16.49438 | 117.19486 | 33965 ft | 463 kts | 327° |
| 2026-04-23 14:27 | 16.54953 | 117.16070 | 33965 ft | 462 kts | 333° |
| 2026-04-23 14:27 | 16.60682 | 117.13014 | 33965 ft | 462 kts | 334° |
| 2026-04-23 14:28 | 16.66394 | 117.09987 | 33966 ft | 461 kts | 334° |
| 2026-04-23 14:28 | 16.72087 | 117.06959 | 33963 ft | 459 kts | 334° |
| 2026-04-23 14:29 | 16.77739 | 117.03948 | 33956 ft | 457 kts | 334° |
| 2026-04-23 14:29 | 16.83385 | 117.00938 | 33949 ft | 454 kts | 334° |
| 2026-04-23 14:30 | 16.88991 | 116.97946 | 33944 ft | 451 kts | 334° |
| 2026-04-23 14:30 | 16.94556 | 116.94975 | 33942 ft | 449 kts | 334° |
| 2026-04-23 14:31 | 17.00124 | 116.91995 | 33940 ft | 449 kts | 334° |
| 2026-04-23 14:31 | 17.05697 | 116.89010 | 33939 ft | 453 kts | 334° |
| 2026-04-23 14:32 | 17.11328 | 116.86000 | 33939 ft | 459 kts | 334° |
| 2026-04-23 14:32 | 17.17031 | 116.82963 | 33940 ft | 462 kts | 334° |
| 2026-04-23 14:33 | 17.22760 | 116.79900 | 33940 ft | 462 kts | 334° |
| 2026-04-23 14:33 | 17.28473 | 116.76838 | 33941 ft | 462 kts | 334° |
| 2026-04-23 14:34 | 17.34178 | 116.73775 | 33940 ft | 462 kts | 334° |
| 2026-04-23 14:34 | 17.39912 | 116.70694 | 33940 ft | 462 kts | 334° |
| 2026-04-23 14:35 | 17.45622 | 116.67623 | 33940 ft | 462 kts | 334° |
| 2026-04-23 14:35 | 17.51329 | 116.64551 | 33941 ft | 462 kts | 334° |
| 2026-04-23 14:36 | 17.57034 | 116.61476 | 33940 ft | 462 kts | 334° |
| 2026-04-23 14:36 | 17.62750 | 116.58392 | 33940 ft | 462 kts | 334° |
| 2026-04-23 14:37 | 17.68443 | 116.55315 | 33940 ft | 462 kts | 334° |
| 2026-04-23 14:37 | 17.74148 | 116.52228 | 33940 ft | 462 kts | 334° |
| 2026-04-23 14:38 | 17.79829 | 116.49164 | 33940 ft | 462 kts | 334° |
| 2026-04-23 14:38 | 17.85524 | 116.46108 | 33940 ft | 462 kts | 334° |
| 2026-04-23 14:39 | 17.91229 | 116.43033 | 33940 ft | 462 kts | 334° |
| 2026-04-23 14:39 | 17.96910 | 116.39963 | 33940 ft | 462 kts | 334° |
| 2026-04-23 14:40 | 18.02592 | 116.36887 | 33940 ft | 462 kts | 334° |
| 2026-04-23 14:40 | 18.08292 | 116.33791 | 33940 ft | 462 kts | 334° |
| 2026-04-23 14:41 | 18.13964 | 116.30694 | 33941 ft | 462 kts | 334° |
| 2026-04-23 14:41 | 18.19643 | 116.27610 | 33940 ft | 462 kts | 334° |
| 2026-04-23 14:42 | 18.25345 | 116.24514 | 33940 ft | 462 kts | 334° |
| 2026-04-23 14:42 | 18.31023 | 116.21427 | 33940 ft | 462 kts | 334° |
| 2026-04-23 14:43 | 18.36699 | 116.18340 | 33940 ft | 462 kts | 334° |
| 2026-04-23 14:43 | 18.42397 | 116.15238 | 33941 ft | 462 kts | 334° |
| 2026-04-23 14:44 | 18.48077 | 116.12143 | 33941 ft | 462 kts | 334° |
| 2026-04-23 14:44 | 18.53749 | 116.09050 | 33940 ft | 462 kts | 334° |
| 2026-04-23 14:45 | 18.59418 | 116.05956 | 33940 ft | 462 kts | 334° |
| 2026-04-23 14:45 | 18.65109 | 116.02847 | 33940 ft | 462 kts | 334° |
| 2026-04-23 14:46 | 18.70775 | 115.99749 | 33940 ft | 462 kts | 334° |
| 2026-04-23 14:46 | 18.76443 | 115.96646 | 33940 ft | 462 kts | 334° |
| 2026-04-23 14:47 | 18.82128 | 115.93528 | 33940 ft | 462 kts | 334° |
| 2026-04-23 14:47 | 18.87794 | 115.90420 | 33940 ft | 462 kts | 334° |
| 2026-04-23 14:48 | 18.93331 | 115.87045 | 33939 ft | 464 kts | 327° |
| 2026-04-23 14:48 | 18.98309 | 115.82737 | 33940 ft | 467 kts | 317° |
| 2026-04-23 14:49 | 19.02549 | 115.77526 | 33940 ft | 470 kts | 307° |
| 2026-04-23 14:49 | 19.06057 | 115.71734 | 33941 ft | 471 kts | 302° |
| 2026-04-23 14:50 | 19.09447 | 115.65856 | 33940 ft | 471 kts | 302° |
| 2026-04-23 14:50 | 19.12883 | 115.59965 | 33941 ft | 471 kts | 303° |
| 2026-04-23 14:51 | 19.16315 | 115.54103 | 33941 ft | 471 kts | 303° |
| 2026-04-23 14:51 | 19.19732 | 115.48239 | 33941 ft | 471 kts | 303° |
| 2026-04-23 14:52 | 19.23156 | 115.42343 | 33941 ft | 471 kts | 302° |
| 2026-04-23 14:52 | 19.26581 | 115.36429 | 33941 ft | 471 kts | 302° |
| 2026-04-23 14:53 | 19.29980 | 115.30546 | 33940 ft | 471 kts | 302° |
| 2026-04-23 14:53 | 19.33393 | 115.24667 | 33940 ft | 471 kts | 302° |
| 2026-04-23 14:54 | 19.36823 | 115.18769 | 33941 ft | 471 kts | 302° |
| 2026-04-23 14:54 | 19.40228 | 115.12891 | 33941 ft | 470 kts | 302° |
| 2026-04-23 14:55 | 19.43624 | 115.07018 | 33941 ft | 469 kts | 303° |
| 2026-04-23 14:55 | 19.47010 | 115.01158 | 33941 ft | 468 kts | 303° |
| 2026-04-23 14:56 | 19.50396 | 114.95290 | 33941 ft | 466 kts | 303° |
| 2026-04-23 14:56 | 19.53761 | 114.89454 | 33940 ft | 466 kts | 303° |
| 2026-04-23 14:57 | 19.57121 | 114.83619 | 33940 ft | 466 kts | 303° |
| 2026-04-23 14:57 | 19.60490 | 114.77758 | 33940 ft | 466 kts | 303° |
| 2026-04-23 14:58 | 19.63842 | 114.71917 | 33940 ft | 466 kts | 303° |
| 2026-04-23 14:58 | 19.67196 | 114.66068 | 33940 ft | 466 kts | 303° |
| 2026-04-23 14:59 | 19.70555 | 114.60227 | 33940 ft | 466 kts | 303° |
| 2026-04-23 14:59 | 19.73919 | 114.54355 | 33940 ft | 466 kts | 303° |
| 2026-04-23 15:00 | 19.77264 | 114.48508 | 33940 ft | 466 kts | 303° |
| 2026-04-23 15:00 | 19.81217 | 114.43150 | 33939 ft | 462 kts | 318° |
| 2026-04-23 15:01 | 19.86386 | 114.39188 | 33939 ft | 459 kts | 334° |
| 2026-04-23 15:01 | 19.92316 | 114.36912 | 33938 ft | 456 kts | 349° |
| 2026-04-23 15:02 | 19.98560 | 114.36142 | 33940 ft | 455 kts | 356° |
| 2026-04-23 15:02 | 20.04858 | 114.35627 | 33940 ft | 455 kts | 356° |
| 2026-04-23 15:03 | 20.11162 | 114.35098 | 33755 ft | 455 kts | 356° |
| 2026-04-23 15:03 | 20.14304 | 114.34824 | 33631 ft | 456 kts | 356° |
| 2026-04-23 15:03 | 20.17446 | 114.34538 | 33507 ft | 456 kts | 356° |
| 2026-04-23 15:04 | 20.20586 | 114.34251 | 33383 ft | 456 kts | 356° |
| 2026-04-23 15:04 | 20.23732 | 114.33966 | 33258 ft | 457 kts | 356° |
| 2026-04-23 15:04 | 20.26879 | 114.33685 | 33134 ft | 457 kts | 356° |
| 2026-04-23 15:04 | 20.30053 | 114.33404 | 33010 ft | 457 kts | 356° |
| 2026-04-23 15:05 | 20.33207 | 114.33125 | 32885 ft | 458 kts | 356° |
| 2026-04-23 15:05 | 20.36360 | 114.32848 | 32761 ft | 458 kts | 356° |
| 2026-04-23 15:05 | 20.39518 | 114.32569 | 32637 ft | 458 kts | 356° |
| 2026-04-23 15:05 | 20.42679 | 114.32291 | 32512 ft | 459 kts | 356° |
| 2026-04-23 15:06 | 20.45839 | 114.32013 | 32388 ft | 459 kts | 356° |
| 2026-04-23 15:06 | 20.49005 | 114.31735 | 32264 ft | 459 kts | 356° |
| 2026-04-23 15:06 | 20.52196 | 114.31454 | 32139 ft | 460 kts | 356° |
| 2026-04-23 15:06 | 20.55398 | 114.31172 | 32016 ft | 460 kts | 356° |
| 2026-04-23 15:07 | 20.58583 | 114.30891 | 31892 ft | 460 kts | 356° |
| 2026-04-23 15:07 | 20.61764 | 114.30610 | 31672 ft | 461 kts | 356° |
| 2026-04-23 15:07 | 20.64966 | 114.30327 | 31448 ft | 461 kts | 356° |
| 2026-04-23 15:07 | 20.68133 | 114.30047 | 31225 ft | 462 kts | 356° |
| 2026-04-23 15:08 | 20.71354 | 114.29770 | 31089 ft | 464 kts | 356° |
| 2026-04-23 15:08 | 20.74620 | 114.29485 | 30849 ft | 465 kts | 356° |
| 2026-04-23 15:08 | 20.77841 | 114.29195 | 30623 ft | 463 kts | 356° |
| 2026-04-23 15:09 | 20.84217 | 114.28626 | 30030 ft | 459 kts | 356° |
| 2026-04-23 15:09 | 20.90562 | 114.28091 | 29677 ft | 458 kts | 356° |
| 2026-04-23 15:09 | 20.93725 | 114.27824 | 29376 ft | 455 kts | 356° |
| 2026-04-23 15:10 | 20.95836 | 114.27619 | 29170 ft | 454 kts | 353° |
| 2026-04-23 15:10 | 20.99823 | 114.26213 | 28749 ft | 454 kts | 331° |
| 2026-04-23 15:10 | 21.02319 | 114.24176 | 28448 ft | 454 kts | 315° |
| 2026-04-23 15:10 | 21.04198 | 114.21466 | 28142 ft | 457 kts | 299° |
| 2026-04-23 15:11 | 21.05317 | 114.18212 | 27840 ft | 476 kts | 283° |
| 2026-04-23 15:11 | 21.05733 | 114.14663 | 27555 ft | 482 kts | 276° |
| 2026-04-23 15:11 | 21.05957 | 114.11810 | 27299 ft | 480 kts | 276° |
| 2026-04-23 15:11 | 21.06239 | 114.08586 | 26629 ft | 480 kts | 277° |
| 2026-04-23 15:12 | 21.06531 | 114.05053 | 25935 ft | 474 kts | 276° |
| 2026-04-23 15:12 | 21.06781 | 114.01535 | 25381 ft | 466 kts | 275° |
| 2026-04-23 15:12 | 21.07033 | 113.98076 | 24758 ft | 460 kts | 276° |
| 2026-04-23 15:12 | 21.07294 | 113.94694 | 24135 ft | 455 kts | 276° |
| 2026-04-23 15:13 | 21.07563 | 113.91343 | 23657 ft | 453 kts | 276° |
| 2026-04-23 15:13 | 21.07838 | 113.87997 | 23181 ft | 449 kts | 276° |
| 2026-04-23 15:13 | 21.08116 | 113.84655 | 22703 ft | 446 kts | 276° |
| 2026-04-23 15:13 | 21.08396 | 113.81347 | 22223 ft | 442 kts | 277° |
| 2026-04-23 15:14 | 21.08786 | 113.78092 | 21747 ft | 439 kts | 280° |
| 2026-04-23 15:14 | 21.09325 | 113.74904 | 21270 ft | 435 kts | 282° |
| 2026-04-23 15:14 | 21.09921 | 113.71750 | 20793 ft | 431 kts | 283° |
| 2026-04-23 15:14 | 21.10523 | 113.68644 | 20317 ft | 428 kts | 283° |
| 2026-04-23 15:15 | 21.11118 | 113.65599 | 19960 ft | 423 kts | 283° |
| 2026-04-23 15:15 | 21.11726 | 113.62445 | 19858 ft | 425 kts | 283° |
| 2026-04-23 15:15 | 21.12313 | 113.59365 | 19657 ft | 423 kts | 283° |
| 2026-04-23 15:15 | 21.12919 | 113.56285 | 19455 ft | 421 kts | 286° |
| 2026-04-23 15:16 | 21.13973 | 113.53374 | 19246 ft | 418 kts | 299° |
| 2026-04-23 15:16 | 21.15600 | 113.50799 | 18938 ft | 415 kts | 311° |
| 2026-04-23 15:16 | 21.17622 | 113.48618 | 18617 ft | 412 kts | 317° |
| 2026-04-23 15:16 | 21.19715 | 113.46533 | 18289 ft | 410 kts | 318° |
| 2026-04-23 15:17 | 21.21825 | 113.44449 | 17961 ft | 408 kts | 318° |
| 2026-04-23 15:17 | 21.23909 | 113.42380 | 17634 ft | 406 kts | 317° |
| 2026-04-23 15:17 | 21.25963 | 113.40330 | 17307 ft | 404 kts | 317° |
| 2026-04-23 15:17 | 21.28006 | 113.38281 | 16980 ft | 403 kts | 317° |
| 2026-04-23 15:18 | 21.30048 | 113.36227 | 16653 ft | 401 kts | 317° |
| 2026-04-23 15:18 | 21.32060 | 113.34199 | 16330 ft | 399 kts | 317° |
| 2026-04-23 15:18 | 21.34067 | 113.32162 | 16004 ft | 397 kts | 317° |
| 2026-04-23 15:18 | 21.36058 | 113.30139 | 15680 ft | 395 kts | 317° |
| 2026-04-23 15:19 | 21.38075 | 113.28094 | 15352 ft | 393 kts | 317° |
| 2026-04-23 15:19 | 21.40059 | 113.26084 | 15022 ft | 391 kts | 317° |
| 2026-04-23 15:19 | 21.42032 | 113.24088 | 14696 ft | 390 kts | 317° |
| 2026-04-23 15:19 | 21.43992 | 113.22104 | 14370 ft | 388 kts | 317° |
| 2026-04-23 15:20 | 21.45313 | 113.20767 | 14150 ft | 387 kts | 317° |
| 2026-04-23 15:20 | 21.47748 | 113.18301 | 13741 ft | 384 kts | 317° |
| 2026-04-23 15:20 | 21.49805 | 113.16216 | 13395 ft | 382 kts | 317° |
| 2026-04-23 15:20 | 21.51691 | 113.14305 | 13076 ft | 381 kts | 317° |
| 2026-04-23 15:21 | 21.53616 | 113.12355 | 12750 ft | 379 kts | 317° |
| 2026-04-23 15:21 | 21.55575 | 113.10452 | 12420 ft | 377 kts | 322° |
| 2026-04-23 15:21 | 21.57772 | 113.09049 | 12101 ft | 376 kts | 336° |
| 2026-04-23 15:21 | 21.60292 | 113.08238 | 11824 ft | 375 kts | 350° |
| 2026-04-23 15:22 | 21.62891 | 113.08115 | 11582 ft | 375 kts | 4° |
| 2026-04-23 15:22 | 21.65458 | 113.08670 | 11332 ft | 375 kts | 17° |
| 2026-04-23 15:22 | 21.67817 | 113.09865 | 11083 ft | 375 kts | 31° |
| 2026-04-23 15:22 | 21.69941 | 113.11497 | 10840 ft | 375 kts | 36° |
| 2026-04-23 15:23 | 21.72011 | 113.13197 | 10754 ft | 374 kts | 36° |
| 2026-04-23 15:23 | 21.74065 | 113.14890 | 10743 ft | 374 kts | 36° |
| 2026-04-23 15:23 | 21.76113 | 113.16569 | 10736 ft | 357 kts | 36° |
| 2026-04-23 15:23 | 21.78050 | 113.18147 | 10734 ft | 338 kts | 36° |
| 2026-04-23 15:24 | 21.79887 | 113.19637 | 10652 ft | 324 kts | 35° |
| 2026-04-23 15:24 | 21.81674 | 113.21083 | 10445 ft | 313 kts | 35° |
| 2026-04-23 15:24 | 21.83403 | 113.22480 | 10242 ft | 304 kts | 35° |
| 2026-04-23 15:24 | 21.85030 | 113.23796 | 10043 ft | 295 kts | 35° |
| 2026-04-23 15:25 | 21.86670 | 113.25124 | 9840 ft | 288 kts | 35° |
| 2026-04-23 15:25 | 21.88290 | 113.26435 | 9641 ft | 288 kts | 35° |
| 2026-04-23 15:25 | 21.89908 | 113.27730 | 9441 ft | 287 kts | 34° |
| 2026-04-23 15:25 | 21.91561 | 113.28959 | 9242 ft | 286 kts | 31° |
| 2026-04-23 15:26 | 21.93247 | 113.30099 | 9043 ft | 284 kts | 29° |
| 2026-04-23 15:26 | 21.94768 | 113.31034 | 8881 ft | 283 kts | 26° |
| 2026-04-23 15:26 | 21.96201 | 113.31860 | 8848 ft | 283 kts | 26° |
| 2026-04-23 15:26 | 21.98225 | 113.33017 | 8700 ft | 282 kts | 26° |
| 2026-04-23 15:27 | 21.99711 | 113.33866 | 8594 ft | 282 kts | 26° |
| 2026-04-23 15:27 | 22.01551 | 113.34920 | 8460 ft | 281 kts | 26° |
| 2026-04-23 15:27 | 22.03305 | 113.35925 | 8336 ft | 280 kts | 26° |
| 2026-04-23 15:27 | 22.05017 | 113.36906 | 8213 ft | 280 kts | 26° |
| 2026-04-23 15:28 | 22.06536 | 113.37777 | 8103 ft | 279 kts | 26° |
| 2026-04-23 15:28 | 22.07218 | 113.38168 | 8054 ft | 279 kts | 26° |
| 2026-04-23 15:28 | 22.08929 | 113.39150 | 7931 ft | 279 kts | 26° |
| 2026-04-23 15:28 | 22.10653 | 113.40139 | 7806 ft | 278 kts | 26° |
| 2026-04-23 15:29 | 22.12386 | 113.41127 | 7682 ft | 277 kts | 26° |
| 2026-04-23 15:29 | 22.14126 | 113.42122 | 7556 ft | 277 kts | 26° |
| 2026-04-23 15:29 | 22.15685 | 113.43016 | 7444 ft | 276 kts | 26° |
| 2026-04-23 15:29 | 22.17458 | 113.44036 | 7306 ft | 266 kts | 26° |
| 2026-04-23 15:30 | 22.18962 | 113.44902 | 7190 ft | 263 kts | 26° |
| 2026-04-23 15:30 | 22.20639 | 113.45865 | 7059 ft | 263 kts | 26° |
| 2026-04-23 15:30 | 22.22153 | 113.46792 | 6941 ft | 263 kts | 30° |
| 2026-04-23 15:30 | 22.23333 | 113.47629 | 6855 ft | 263 kts | 32° |
| 2026-04-23 15:31 | 22.25165 | 113.49017 | 6670 ft | 263 kts | 33° |
| 2026-04-23 15:31 | 22.26676 | 113.50167 | 6519 ft | 262 kts | 33° |
| 2026-04-23 15:31 | 22.28179 | 113.51307 | 6369 ft | 261 kts | 33° |
| 2026-04-23 15:31 | 22.29674 | 113.52439 | 6218 ft | 261 kts | 33° |
| 2026-04-23 15:32 | 22.31175 | 113.53575 | 6068 ft | 260 kts | 33° |
| 2026-04-23 15:32 | 22.32604 | 113.54709 | 5915 ft | 260 kts | 40° |
| 2026-04-23 15:32 | 22.33674 | 113.56132 | 5774 ft | 257 kts | 57° |
| 2026-04-23 15:32 | 22.34512 | 113.57865 | 5623 ft | 251 kts | 61° |
| 2026-04-23 15:33 | 22.35268 | 113.59518 | 5479 ft | 251 kts | 61° |
| 2026-04-23 15:33 | 22.36049 | 113.61206 | 5330 ft | 250 kts | 60° |
| 2026-04-23 15:33 | 22.36832 | 113.62882 | 5183 ft | 250 kts | 60° |
| 2026-04-23 15:33 | 22.37606 | 113.64527 | 5038 ft | 249 kts | 60° |
| 2026-04-23 15:34 | 22.38308 | 113.66018 | 4903 ft | 248 kts | 61° |
| 2026-04-23 15:34 | 22.39077 | 113.67660 | 4754 ft | 247 kts | 61° |
| 2026-04-23 15:34 | 22.39864 | 113.69336 | 4632 ft | 247 kts | 61° |
| 2026-04-23 15:34 | 22.40631 | 113.70959 | 4510 ft | 246 kts | 61° |
| 2026-04-23 15:35 | 22.41422 | 113.72635 | 4384 ft | 246 kts | 61° |
| 2026-04-23 15:35 | 22.42199 | 113.74279 | 4257 ft | 245 kts | 61° |
| 2026-04-23 15:35 | 22.42940 | 113.75848 | 4137 ft | 244 kts | 61° |
| 2026-04-23 15:35 | 22.43666 | 113.77398 | 4013 ft | 238 kts | 61° |
| 2026-04-23 15:36 | 22.44410 | 113.79004 | 3881 ft | 231 kts | 61° |
| 2026-04-23 15:36 | 22.45054 | 113.80394 | 3747 ft | 232 kts | 61° |
| 2026-04-23 15:36 | 22.45810 | 113.82023 | 3504 ft | 229 kts | 61° |
| 2026-04-23 15:36 | 22.46450 | 113.83403 | 3299 ft | 225 kts | 61° |
| 2026-04-23 15:37 | 22.47041 | 113.84676 | 3059 ft | 225 kts | 61° |
| 2026-04-23 15:37 | 22.47879 | 113.86481 | 2631 ft | 229 kts | 61° |
| 2026-04-23 15:37 | 22.48313 | 113.87392 | 2412 ft | 230 kts | 57° |
| 2026-04-23 15:37 | 22.49967 | 113.88698 | 1977 ft | 224 kts | 5° |
| 2026-04-23 15:38 | 22.51026 | 113.88550 | 2000 ft | 211 kts | 339° |
| 2026-04-23 15:38 | 22.52003 | 113.87926 | 2004 ft | 199 kts | 327° |
| 2026-04-23 15:38 | 22.53523 | 113.86859 | 1967 ft | 179 kts | 332° |
| 2026-04-23 15:38 | 22.54615 | 113.86207 | 1762 ft | 177 kts | 334° |
| 2026-04-23 15:39 | 22.55604 | 113.85644 | 1560 ft | 163 kts | 334° |
| 2026-04-23 15:39 | 22.56598 | 113.85090 | 1343 ft | 157 kts | 335° |
| 2026-04-23 15:39 | 22.57465 | 113.84611 | 1152 ft | 151 kts | 335° |
| 2026-04-23 15:39 | 22.58026 | 113.84302 | 1020 ft | 142 kts | 335° |
| 2026-04-23 15:40 | 22.58547 | 113.84016 | 909 ft | 140 kts | 335° |
| 2026-04-23 15:40 | 22.59138 | 113.83693 | 802 ft | 141 kts | 335° |
| 2026-04-23 15:40 | 22.59957 | 113.83244 | 632 ft | 141 kts | 335° |
| 2026-04-23 15:40 | 22.60599 | 113.82905 | 480 ft | 140 kts | 335° |
| 2026-04-23 15:41 | 22.61196 | 113.82538 | 373 ft | 141 kts | 334° |
| 2026-04-23 15:41 | 22.61833 | 113.82175 | 233 ft | 140 kts | 337° |
| 2026-04-23 15:41 | 22.62494 | 113.81835 | 93 ft | 139 kts | 337° |
| 2026-04-23 15:41 | 22.63119 | 113.81487 | 25 ft | 129 kts | 334° |
| 2026-04-23 15:42 | 22.63548 | 113.81264 | 22 ft | 41 kts | 339° |
| 2026-04-23 15:42 | 22.63640 | 113.81221 | 22 ft | 0 kts | 333° |
| 2026-04-23 15:42 | 22.63691 | 113.81191 | 22 ft | 30 kts | 331° |
| 2026-04-23 15:42 | 22.63832 | 113.81104 | 22 ft | 32 kts | 330° |
| 2026-04-23 15:43 | 22.63974 | 113.80979 | 22 ft | 27 kts | 315° |
| 2026-04-23 15:43 | 22.64044 | 113.80813 | 22 ft | 22 kts | 252° |
| 2026-04-23 15:43 | 22.63978 | 113.80802 | 22 ft | 11 kts | 139° |
| 2026-04-23 15:43 | 22.63907 | 113.80862 | 22 ft | 11 kts | 159° |
| 2026-04-23 15:44 | 22.63839 | 113.80895 | 22 ft | 12 kts | 150° |
| 2026-04-23 15:44 | 22.63780 | 113.80936 | 22 ft | 13 kts | 145° |
| 2026-04-23 15:44 | 22.63698 | 113.80983 | 22 ft | 14 kts | 153° |
| 2026-04-23 15:44 | 22.63612 | 113.81032 | 22 ft | 16 kts | 152° |
| 2026-04-23 15:45 | 22.63522 | 113.81076 | 22 ft | 16 kts | 160° |
| 2026-04-23 15:45 | 22.63442 | 113.81106 | 22 ft | 17 kts | 169° |
| 2026-04-23 15:45 | 22.63380 | 113.81076 | 22 ft | 11 kts | 237° |
| 2026-04-23 15:45 | 22.63347 | 113.81020 | 22 ft | 12 kts | 239° |
| 2026-04-23 15:46 | 22.63310 | 113.80948 | 22 ft | 13 kts | 242° |
| 2026-04-23 15:46 | 22.63285 | 113.80885 | 22 ft | 9 kts | 274° |
| 2026-04-23 15:46 | 22.63316 | 113.80837 | 22 ft | 8 kts | 313° |
| 2026-04-23 15:46 | 22.63333 | 113.80826 | 22 ft | 0 kts | 336° |